sensor_id;sensor_type;location;lat;lon;timestamp;temperature;humidity
24402;DHT22;12539;48.808;11.292;2023-02-27T00:00:56;0.50;99.90
24402;DHT22;12539;48.808;11.292;2023-02-27T00:03:22;0.50;99.90
24402;DHT22;12539;48.808;11.292;2023-02-27T00:05:48;0.50;99.90
24402;DHT22;12539;48.808;11.292;2023-02-27T00:08:13;0.60;99.90
24402;DHT22;12539;48.808;11.292;2023-02-27T00:10:39;0.60;99.90
24402;DHT22;12539;48.808;11.292;2023-02-27T00:13:05;0.50;99.90
24402;DHT22;12539;48.808;11.292;2023-02-27T00:15:30;0.50;99.90
24402;DHT22;12539;48.808;11.292;2023-02-27T00:17:57;0.60;99.90
24402;DHT22;12539;48.808;11.292;2023-02-27T00:20:22;0.60;99.90
24402;DHT22;12539;48.808;11.292;2023-02-27T00:22:48;0.60;99.90
24402;DHT22;12539;48.808;11.292;2023-02-27T00:25:13;0.70;99.90
24402;DHT22;12539;48.808;11.292;2023-02-27T00:27:39;0.70;99.90
24402;DHT22;12539;48.808;11.292;2023-02-27T00:30:05;0.80;99.90
24402;DHT22;12539;48.808;11.292;2023-02-27T00:32:31;0.70;99.90
24402;DHT22;12539;48.808;11.292;2023-02-27T00:34:57;0.60;99.90
24402;DHT22;12539;48.808;11.292;2023-02-27T00:37:23;0.50;99.90
24402;DHT22;12539;48.808;11.292;2023-02-27T00:39:48;0.50;99.90
24402;DHT22;12539;48.808;11.292;2023-02-27T00:42:14;0.50;99.90
24402;DHT22;12539;48.808;11.292;2023-02-27T00:44:40;0.60;99.90
24402;DHT22;12539;48.808;11.292;2023-02-27T00:47:06;0.60;99.90
24402;DHT22;12539;48.808;11.292;2023-02-27T00:49:31;0.60;99.90
24402;DHT22;12539;48.808;11.292;2023-02-27T00:51:57;0.60;99.90
24402;DHT22;12539;48.808;11.292;2023-02-27T00:54:22;0.50;99.90
24402;DHT22;12539;48.808;11.292;2023-02-27T00:56:48;0.50;99.90
24402;DHT22;12539;48.808;11.292;2023-02-27T00:59:13;0.50;99.90
24402;DHT22;12539;48.808;11.292;2023-02-27T01:01:39;0.60;99.90
24402;DHT22;12539;48.808;11.292;2023-02-27T01:04:05;0.70;99.90
24402;DHT22;12539;48.808;11.292;2023-02-27T01:06:30;0.70;99.90
24402;DHT22;12539;48.808;11.292;2023-02-27T01:08:56;0.80;99.90
24402;DHT22;12539;48.808;11.292;2023-02-27T01:11:21;0.80;99.90
24402;DHT22;12539;48.808;11.292;2023-02-27T01:13:47;0.80;99.90
24402;DHT22;12539;48.808;11.292;2023-02-27T01:16:12;0.80;99.90
24402;DHT22;12539;48.808;11.292;2023-02-27T01:18:38;0.80;99.90
24402;DHT22;12539;48.808;11.292;2023-02-27T01:21:04;0.80;99.90
24402;DHT22;12539;48.808;11.292;2023-02-27T01:23:29;0.70;99.90
24402;DHT22;12539;48.808;11.292;2023-02-27T01:25:55;0.70;99.90
24402;DHT22;12539;48.808;11.292;2023-02-27T01:28:20;0.70;99.90
24402;DHT22;12539;48.808;11.292;2023-02-27T01:30:46;0.80;99.90
24402;DHT22;12539;48.808;11.292;2023-02-27T01:33:11;0.70;99.90
24402;DHT22;12539;48.808;11.292;2023-02-27T01:35:37;0.70;99.90
24402;DHT22;12539;48.808;11.292;2023-02-27T01:38:03;0.80;99.90
24402;DHT22;12539;48.808;11.292;2023-02-27T01:40:29;0.70;99.90
24402;DHT22;12539;48.808;11.292;2023-02-27T01:42:54;0.70;99.90
24402;DHT22;12539;48.808;11.292;2023-02-27T01:45:36;0.70;99.90
24402;DHT22;12539;48.808;11.292;2023-02-27T01:50:29;0.60;99.90
24402;DHT22;12539;48.808;11.292;2023-02-27T01:52:56;0.70;99.90
24402;DHT22;12539;48.808;11.292;2023-02-27T01:55:23;0.70;99.90
24402;DHT22;12539;48.808;11.292;2023-02-27T01:57:49;0.70;99.90
24402;DHT22;12539;48.808;11.292;2023-02-27T02:00:15;0.70;99.90
24402;DHT22;12539;48.808;11.292;2023-02-27T02:02:43;0.70;99.90
24402;DHT22;12539;48.808;11.292;2023-02-27T02:05:10;0.70;99.90
24402;DHT22;12539;48.808;11.292;2023-02-27T02:07:36;0.80;99.90
24402;DHT22;12539;48.808;11.292;2023-02-27T02:10:05;0.80;99.90
24402;DHT22;12539;48.808;11.292;2023-02-27T02:12:33;0.80;99.90
24402;DHT22;12539;48.808;11.292;2023-02-27T02:14:59;0.80;99.90
24402;DHT22;12539;48.808;11.292;2023-02-27T02:38:28;0.50;99.90
24402;DHT22;12539;48.808;11.292;2023-02-27T02:43:47;0.40;99.90
24402;DHT22;12539;48.808;11.292;2023-02-27T02:46:28;0.30;99.90
24402;DHT22;12539;48.808;11.292;2023-02-27T02:49:15;0.30;99.90
24402;DHT22;12539;48.808;11.292;2023-02-27T02:51:48;0.30;99.90
24402;DHT22;12539;48.808;11.292;2023-02-27T02:54:17;0.30;99.90
24402;DHT22;12539;48.808;11.292;2023-02-27T02:56:49;0.30;99.90
24402;DHT22;12539;48.808;11.292;2023-02-27T02:59:23;0.40;99.90
24402;DHT22;12539;48.808;11.292;2023-02-27T03:01:50;0.40;99.90
24402;DHT22;12539;48.808;11.292;2023-02-27T03:04:20;0.50;99.90
24402;DHT22;12539;48.808;11.292;2023-02-27T03:06:47;0.50;99.90
24402;DHT22;12539;48.808;11.292;2023-02-27T03:11:43;0.60;99.90
24402;DHT22;12539;48.808;11.292;2023-02-27T03:14:16;0.50;99.90
24402;DHT22;12539;48.808;11.292;2023-02-27T03:16:43;0.40;99.90
24402;DHT22;12539;48.808;11.292;2023-02-27T03:19:12;0.40;99.90
24402;DHT22;12539;48.808;11.292;2023-02-27T03:21:46;0.40;99.90
24402;DHT22;12539;48.808;11.292;2023-02-27T03:24:15;0.40;99.90
24402;DHT22;12539;48.808;11.292;2023-02-27T03:26:43;0.40;99.90
24402;DHT22;12539;48.808;11.292;2023-02-27T03:29:14;0.40;99.90
24402;DHT22;12539;48.808;11.292;2023-02-27T03:31:56;0.40;99.90
24402;DHT22;12539;48.808;11.292;2023-02-27T03:34:30;0.30;99.90
24402;DHT22;12539;48.808;11.292;2023-02-27T03:36:59;0.40;99.90
24402;DHT22;12539;48.808;11.292;2023-02-27T03:39:38;0.40;99.90
24402;DHT22;12539;48.808;11.292;2023-02-27T03:44:36;0.30;99.90
24402;DHT22;12539;48.808;11.292;2023-02-27T03:47:02;0.40;99.90
24402;DHT22;12539;48.808;11.292;2023-02-27T03:49:28;0.30;99.90
24402;DHT22;12539;48.808;11.292;2023-02-27T03:51:53;0.30;99.90
24402;DHT22;12539;48.808;11.292;2023-02-27T03:54:20;0.30;99.90
24402;DHT22;12539;48.808;11.292;2023-02-27T03:56:51;0.30;99.90
24402;DHT22;12539;48.808;11.292;2023-02-27T03:59:20;0.20;99.90
24402;DHT22;12539;48.808;11.292;2023-02-27T04:01:47;0.20;99.90
24402;DHT22;12539;48.808;11.292;2023-02-27T04:04:14;0.20;99.90
24402;DHT22;12539;48.808;11.292;2023-02-27T04:06:41;0.20;99.90
24402;DHT22;12539;48.808;11.292;2023-02-27T04:12:22;0.20;99.90
24402;DHT22;12539;48.808;11.292;2023-02-27T04:23:03;0.20;99.90
24402;DHT22;12539;48.808;11.292;2023-02-27T04:25:34;0.10;99.90
24402;DHT22;12539;48.808;11.292;2023-02-27T04:30:30;0.00;99.90
24402;DHT22;12539;48.808;11.292;2023-02-27T04:33:08;0.00;99.90
24402;DHT22;12539;48.808;11.292;2023-02-27T04:35:37;0.00;99.90
24402;DHT22;12539;48.808;11.292;2023-02-27T04:38:08;0.00;99.90
24402;DHT22;12539;48.808;11.292;2023-02-27T04:40:39;-0.10;99.90
24402;DHT22;12539;48.808;11.292;2023-02-27T04:43:08;-0.10;99.90
24402;DHT22;12539;48.808;11.292;2023-02-27T04:45:35;0.00;99.90
24402;DHT22;12539;48.808;11.292;2023-02-27T04:48:04;0.10;99.90
24402;DHT22;12539;48.808;11.292;2023-02-27T04:50:33;0.10;99.90
24402;DHT22;12539;48.808;11.292;2023-02-27T04:53:02;0.20;99.90
24402;DHT22;12539;48.808;11.292;2023-02-27T04:55:32;0.20;99.90
24402;DHT22;12539;48.808;11.292;2023-02-27T04:58:07;0.20;99.90
24402;DHT22;12539;48.808;11.292;2023-02-27T05:00:33;0.20;99.90
24402;DHT22;12539;48.808;11.292;2023-02-27T05:03:06;0.20;99.90
24402;DHT22;12539;48.808;11.292;2023-02-27T05:05:33;0.10;99.90
24402;DHT22;12539;48.808;11.292;2023-02-27T05:08:04;0.10;99.90
24402;DHT22;12539;48.808;11.292;2023-02-27T05:10:32;0.10;99.90
24402;DHT22;12539;48.808;11.292;2023-02-27T05:13:04;0.10;99.90
24402;DHT22;12539;48.808;11.292;2023-02-27T05:15:32;0.10;99.90
24402;DHT22;12539;48.808;11.292;2023-02-27T05:18:07;0.10;99.90
24402;DHT22;12539;48.808;11.292;2023-02-27T05:23:29;0.10;99.90
24402;DHT22;12539;48.808;11.292;2023-02-27T05:25:59;0.00;99.90
24402;DHT22;12539;48.808;11.292;2023-02-27T05:28:29;0.00;99.90
24402;DHT22;12539;48.808;11.292;2023-02-27T05:31:01;0.00;99.90
24402;DHT22;12539;48.808;11.292;2023-02-27T05:33:29;0.10;99.90
24402;DHT22;12539;48.808;11.292;2023-02-27T05:38:46;0.20;99.90
24402;DHT22;12539;48.808;11.292;2023-02-27T05:41:13;0.30;99.90
24402;DHT22;12539;48.808;11.292;2023-02-27T05:43:41;0.30;99.90
24402;DHT22;12539;48.808;11.292;2023-02-27T05:46:42;0.40;99.90
24402;DHT22;12539;48.808;11.292;2023-02-27T05:49:00;0.40;99.90
24402;DHT22;12539;48.808;11.292;2023-02-27T05:51:28;0.40;99.90
24402;DHT22;12539;48.808;11.292;2023-02-27T05:53:56;0.40;99.90
24402;DHT22;12539;48.808;11.292;2023-02-27T05:56:23;0.40;99.90
24402;DHT22;12539;48.808;11.292;2023-02-27T05:59:01;0.50;99.90
24402;DHT22;12539;48.808;11.292;2023-02-27T06:01:28;0.40;99.90
24402;DHT22;12539;48.808;11.292;2023-02-27T06:03:53;0.40;99.90
24402;DHT22;12539;48.808;11.292;2023-02-27T06:06:19;0.40;99.90
24402;DHT22;12539;48.808;11.292;2023-02-27T06:08:46;0.40;99.90
24402;DHT22;12539;48.808;11.292;2023-02-27T06:11:12;0.40;99.90
24402;DHT22;12539;48.808;11.292;2023-02-27T06:13:38;0.40;99.90
24402;DHT22;12539;48.808;11.292;2023-02-27T06:16:03;0.50;99.90
24402;DHT22;12539;48.808;11.292;2023-02-27T06:18:29;0.50;99.90
24402;DHT22;12539;48.808;11.292;2023-02-27T06:20:55;0.50;99.90
24402;DHT22;12539;48.808;11.292;2023-02-27T06:23:21;0.60;99.90
24402;DHT22;12539;48.808;11.292;2023-02-27T06:25:47;0.40;99.90
24402;DHT22;12539;48.808;11.292;2023-02-27T06:28:13;0.50;99.90
24402;DHT22;12539;48.808;11.292;2023-02-27T06:30:38;0.40;99.90
24402;DHT22;12539;48.808;11.292;2023-02-27T06:33:04;0.40;99.90
24402;DHT22;12539;48.808;11.292;2023-02-27T06:35:29;0.40;99.90
24402;DHT22;12539;48.808;11.292;2023-02-27T06:37:55;0.40;99.90
24402;DHT22;12539;48.808;11.292;2023-02-27T06:40:21;0.40;99.90
24402;DHT22;12539;48.808;11.292;2023-02-27T06:42:47;0.50;99.90
24402;DHT22;12539;48.808;11.292;2023-02-27T06:45:14;0.60;99.90
24402;DHT22;12539;48.808;11.292;2023-02-27T06:47:40;0.60;99.90
24402;DHT22;12539;48.808;11.292;2023-02-27T06:50:08;0.50;99.90
24402;DHT22;12539;48.808;11.292;2023-02-27T06:52:35;0.50;99.90
24402;DHT22;12539;48.808;11.292;2023-02-27T06:55:01;0.50;99.90
24402;DHT22;12539;48.808;11.292;2023-02-27T06:57:26;0.50;99.90
24402;DHT22;12539;48.808;11.292;2023-02-27T06:59:52;0.40;99.90
24402;DHT22;12539;48.808;11.292;2023-02-27T07:02:17;0.40;99.90
24402;DHT22;12539;48.808;11.292;2023-02-27T07:04:43;0.40;99.90
24402;DHT22;12539;48.808;11.292;2023-02-27T07:07:09;0.50;99.90
24402;DHT22;12539;48.808;11.292;2023-02-27T07:09:34;0.50;99.90
24402;DHT22;12539;48.808;11.292;2023-02-27T07:12:00;0.60;99.90
24402;DHT22;12539;48.808;11.292;2023-02-27T07:14:26;0.60;99.90
24402;DHT22;12539;48.808;11.292;2023-02-27T07:16:51;0.70;99.90
24402;DHT22;12539;48.808;11.292;2023-02-27T07:19:20;0.50;99.90
24402;DHT22;12539;48.808;11.292;2023-02-27T07:21:46;0.60;99.90
24402;DHT22;12539;48.808;11.292;2023-02-27T07:24:11;0.50;99.90
24402;DHT22;12539;48.808;11.292;2023-02-27T07:26:37;0.40;99.90
24402;DHT22;12539;48.808;11.292;2023-02-27T07:29:03;0.50;99.90
24402;DHT22;12539;48.808;11.292;2023-02-27T07:31:29;0.50;99.90
24402;DHT22;12539;48.808;11.292;2023-02-27T07:33:54;0.60;99.90
24402;DHT22;12539;48.808;11.292;2023-02-27T07:36:20;0.60;99.90
24402;DHT22;12539;48.808;11.292;2023-02-27T07:38:45;0.70;99.90
24402;DHT22;12539;48.808;11.292;2023-02-27T07:41:11;0.70;99.90
24402;DHT22;12539;48.808;11.292;2023-02-27T07:43:36;0.70;99.90
24402;DHT22;12539;48.808;11.292;2023-02-27T07:46:02;0.70;99.90
24402;DHT22;12539;48.808;11.292;2023-02-27T07:48:31;0.80;99.90
24402;DHT22;12539;48.808;11.292;2023-02-27T07:50:57;0.90;99.90
24402;DHT22;12539;48.808;11.292;2023-02-27T07:53:23;1.00;99.90
24402;DHT22;12539;48.808;11.292;2023-02-27T07:55:49;1.10;99.90
24402;DHT22;12539;48.808;11.292;2023-02-27T07:58:15;1.20;99.90
24402;DHT22;12539;48.808;11.292;2023-02-27T08:00:41;1.30;99.90
24402;DHT22;12539;48.808;11.292;2023-02-27T08:03:07;1.30;99.90
24402;DHT22;12539;48.808;11.292;2023-02-27T08:05:32;1.40;99.90
24402;DHT22;12539;48.808;11.292;2023-02-27T08:07:58;1.50;99.90
24402;DHT22;12539;48.808;11.292;2023-02-27T08:10:25;1.40;99.90
24402;DHT22;12539;48.808;11.292;2023-02-27T08:12:51;1.50;99.90
24402;DHT22;12539;48.808;11.292;2023-02-27T08:15:16;1.50;99.90
24402;DHT22;12539;48.808;11.292;2023-02-27T08:17:43;1.40;99.90
24402;DHT22;12539;48.808;11.292;2023-02-27T08:20:09;1.40;99.90
24402;DHT22;12539;48.808;11.292;2023-02-27T08:22:36;1.30;99.90
24402;DHT22;12539;48.808;11.292;2023-02-27T08:25:02;1.40;99.90
24402;DHT22;12539;48.808;11.292;2023-02-27T08:27:30;1.40;99.90
24402;DHT22;12539;48.808;11.292;2023-02-27T08:29:55;1.50;99.90
24402;DHT22;12539;48.808;11.292;2023-02-27T08:32:21;1.50;99.90
24402;DHT22;12539;48.808;11.292;2023-02-27T08:34:46;1.60;99.90
24402;DHT22;12539;48.808;11.292;2023-02-27T08:37:12;1.60;99.90
24402;DHT22;12539;48.808;11.292;2023-02-27T08:39:37;1.60;99.90
24402;DHT22;12539;48.808;11.292;2023-02-27T08:42:03;1.70;99.90
24402;DHT22;12539;48.808;11.292;2023-02-27T08:44:28;1.70;99.90
24402;DHT22;12539;48.808;11.292;2023-02-27T08:46:54;1.80;99.90
24402;DHT22;12539;48.808;11.292;2023-02-27T08:49:21;2.00;99.90
24402;DHT22;12539;48.808;11.292;2023-02-27T08:51:49;2.10;99.90
24402;DHT22;12539;48.808;11.292;2023-02-27T08:54:14;2.10;99.90
24402;DHT22;12539;48.808;11.292;2023-02-27T08:56:40;2.20;99.90
24402;DHT22;12539;48.808;11.292;2023-02-27T08:59:05;2.10;99.90
24402;DHT22;12539;48.808;11.292;2023-02-27T09:01:31;2.20;99.90
24402;DHT22;12539;48.808;11.292;2023-02-27T09:03:59;2.20;99.90
24402;DHT22;12539;48.808;11.292;2023-02-27T09:06:25;2.20;99.90
24402;DHT22;12539;48.808;11.292;2023-02-27T09:08:50;2.30;99.90
24402;DHT22;12539;48.808;11.292;2023-02-27T09:11:16;2.30;99.90
24402;DHT22;12539;48.808;11.292;2023-02-27T09:13:41;2.60;99.90
24402;DHT22;12539;48.808;11.292;2023-02-27T09:16:07;2.60;99.90
24402;DHT22;12539;48.808;11.292;2023-02-27T09:18:32;2.60;99.90
24402;DHT22;12539;48.808;11.292;2023-02-27T09:20:58;2.60;99.90
24402;DHT22;12539;48.808;11.292;2023-02-27T09:23:24;2.70;99.90
24402;DHT22;12539;48.808;11.292;2023-02-27T09:25:49;2.80;99.90
24402;DHT22;12539;48.808;11.292;2023-02-27T09:28:15;2.80;98.90
24402;DHT22;12539;48.808;11.292;2023-02-27T09:30:40;2.80;98.00
24402;DHT22;12539;48.808;11.292;2023-02-27T09:33:06;2.80;97.50
24402;DHT22;12539;48.808;11.292;2023-02-27T09:35:32;2.80;97.50
24402;DHT22;12539;48.808;11.292;2023-02-27T09:37:57;2.90;97.20
24402;DHT22;12539;48.808;11.292;2023-02-27T09:40:24;2.90;97.10
24402;DHT22;12539;48.808;11.292;2023-02-27T09:42:50;2.80;96.00
24402;DHT22;12539;48.808;11.292;2023-02-27T09:47:45;2.90;96.50
24402;DHT22;12539;48.808;11.292;2023-02-27T09:52:44;2.90;97.40
24402;DHT22;12539;48.808;11.292;2023-02-27T09:55:15;3.00;96.80
24402;DHT22;12539;48.808;11.292;2023-02-27T09:57:53;3.10;97.60
24402;DHT22;12539;48.808;11.292;2023-02-27T10:00:34;3.10;97.40
24402;DHT22;12539;48.808;11.292;2023-02-27T10:05:34;3.20;93.80
24402;DHT22;12539;48.808;11.292;2023-02-27T10:08:14;3.20;93.50
24402;DHT22;12539;48.808;11.292;2023-02-27T10:16:09;3.10;92.00
24402;DHT22;12539;48.808;11.292;2023-02-27T10:18:40;3.10;94.20
24402;DHT22;12539;48.808;11.292;2023-02-27T10:21:12;3.10;94.70
24402;DHT22;12539;48.808;11.292;2023-02-27T10:23:43;3.30;95.70
24402;DHT22;12539;48.808;11.292;2023-02-27T10:26:19;3.50;94.60
24402;DHT22;12539;48.808;11.292;2023-02-27T10:28:45;3.70;94.70
24402;DHT22;12539;48.808;11.292;2023-02-27T10:31:14;3.90;93.70
24402;DHT22;12539;48.808;11.292;2023-02-27T10:33:41;4.10;93.20
24402;DHT22;12539;48.808;11.292;2023-02-27T10:36:08;4.20;93.20
24402;DHT22;12539;48.808;11.292;2023-02-27T10:38:40;4.40;92.50
24402;DHT22;12539;48.808;11.292;2023-02-27T10:41:12;4.50;93.50
24402;DHT22;12539;48.808;11.292;2023-02-27T10:43:39;4.60;92.80
24402;DHT22;12539;48.808;11.292;2023-02-27T10:46:06;4.80;92.90
24402;DHT22;12539;48.808;11.292;2023-02-27T10:48:36;4.90;92.60
24402;DHT22;12539;48.808;11.292;2023-02-27T10:54:18;5.00;92.30
24402;DHT22;12539;48.808;11.292;2023-02-27T10:56:46;5.00;92.40
24402;DHT22;12539;48.808;11.292;2023-02-27T10:59:26;4.90;91.40
24402;DHT22;12539;48.808;11.292;2023-02-27T11:04:25;4.70;90.20
24402;DHT22;12539;48.808;11.292;2023-02-27T11:06:51;4.60;90.30
24402;DHT22;12539;48.808;11.292;2023-02-27T11:09:25;4.60;89.60
24402;DHT22;12539;48.808;11.292;2023-02-27T11:11:51;4.50;90.70
24402;DHT22;12539;48.808;11.292;2023-02-27T11:14:28;4.60;89.60
24402;DHT22;12539;48.808;11.292;2023-02-27T11:16:55;4.60;88.90
24402;DHT22;12539;48.808;11.292;2023-02-27T11:22:15;4.70;91.70
24402;DHT22;12539;48.808;11.292;2023-02-27T11:24:41;4.70;89.40
24402;DHT22;12539;48.808;11.292;2023-02-27T11:27:19;4.70;90.60
24402;DHT22;12539;48.808;11.292;2023-02-27T11:30:02;4.80;89.80
24402;DHT22;12539;48.808;11.292;2023-02-27T11:32:49;4.70;88.90
24402;DHT22;12539;48.808;11.292;2023-02-27T11:35:31;4.70;88.40
24402;DHT22;12539;48.808;11.292;2023-02-27T11:37:58;4.70;88.50
24402;DHT22;12539;48.808;11.292;2023-02-27T11:40:36;4.70;87.20
24402;DHT22;12539;48.808;11.292;2023-02-27T11:43:04;4.60;86.80
24402;DHT22;12539;48.808;11.292;2023-02-27T11:45:32;4.70;89.70
24402;DHT22;12539;48.808;11.292;2023-02-27T11:48:00;4.80;87.00
24402;DHT22;12539;48.808;11.292;2023-02-27T11:56:15;5.00;86.00
24402;DHT22;12539;48.808;11.292;2023-02-27T11:58:44;5.00;86.20
24402;DHT22;12539;48.808;11.292;2023-02-27T12:01:24;5.00;86.20
24402;DHT22;12539;48.808;11.292;2023-02-27T12:06:22;5.00;84.80
24402;DHT22;12539;48.808;11.292;2023-02-27T12:08:55;4.90;85.00
24402;DHT22;12539;48.808;11.292;2023-02-27T12:11:23;4.80;82.70
24402;DHT22;12539;48.808;11.292;2023-02-27T12:14:35;4.60;84.70
24402;DHT22;12539;48.808;11.292;2023-02-27T12:16:42;4.50;83.60
24402;DHT22;12539;48.808;11.292;2023-02-27T12:19:15;4.40;83.90
24402;DHT22;12539;48.808;11.292;2023-02-27T12:21:43;4.50;85.60
24402;DHT22;12539;48.808;11.292;2023-02-27T12:24:24;4.60;85.80
24402;DHT22;12539;48.808;11.292;2023-02-27T12:26:55;4.70;88.50
24402;DHT22;12539;48.808;11.292;2023-02-27T12:29:41;5.00;88.60
24402;DHT22;12539;48.808;11.292;2023-02-27T12:32:14;5.10;90.10
24402;DHT22;12539;48.808;11.292;2023-02-27T12:34:44;5.30;89.70
24402;DHT22;12539;48.808;11.292;2023-02-27T12:37:25;5.40;87.60
24402;DHT22;12539;48.808;11.292;2023-02-27T12:39:55;5.40;87.80
24402;DHT22;12539;48.808;11.292;2023-02-27T12:42:36;5.40;86.40
24402;DHT22;12539;48.808;11.292;2023-02-27T12:50:11;5.50;90.20
24402;DHT22;12539;48.808;11.292;2023-02-27T12:55:14;5.60;88.40
24402;DHT22;12539;48.808;11.292;2023-02-27T12:57:54;5.70;86.00
24402;DHT22;12539;48.808;11.292;2023-02-27T13:00:23;5.70;85.30
24402;DHT22;12539;48.808;11.292;2023-02-27T13:05:54;5.60;83.70
24402;DHT22;12539;48.808;11.292;2023-02-27T13:13:38;5.30;82.50
24402;DHT22;12539;48.808;11.292;2023-02-27T13:18:38;5.30;88.00
24402;DHT22;12539;48.808;11.292;2023-02-27T13:21:10;5.30;86.60
24402;DHT22;12539;48.808;11.292;2023-02-27T13:26:12;5.30;83.90
24402;DHT22;12539;48.808;11.292;2023-02-27T13:28:39;5.40;87.60
24402;DHT22;12539;48.808;11.292;2023-02-27T13:31:06;5.50;86.20
24402;DHT22;12539;48.808;11.292;2023-02-27T13:36:17;5.50;87.20
24402;DHT22;12539;48.808;11.292;2023-02-27T13:38:49;5.60;89.00
24402;DHT22;12539;48.808;11.292;2023-02-27T13:43:50;5.60;86.90
24402;DHT22;12539;48.808;11.292;2023-02-27T13:54:14;5.20;82.20
24402;DHT22;12539;48.808;11.292;2023-02-27T13:59:11;5.20;82.90
24402;DHT22;12539;48.808;11.292;2023-02-27T14:01:37;5.20;82.00
24402;DHT22;12539;48.808;11.292;2023-02-27T14:04:03;5.20;86.00
24402;DHT22;12539;48.808;11.292;2023-02-27T14:06:29;5.30;83.40
24402;DHT22;12539;48.808;11.292;2023-02-27T14:08:55;5.20;83.70
24402;DHT22;12539;48.808;11.292;2023-02-27T14:11:23;5.20;81.90
24402;DHT22;12539;48.808;11.292;2023-02-27T14:19:00;4.90;81.30
24402;DHT22;12539;48.808;11.292;2023-02-27T14:24:13;4.80;80.80
24402;DHT22;12539;48.808;11.292;2023-02-27T14:26:39;4.70;84.60
24402;DHT22;12539;48.808;11.292;2023-02-27T14:29:11;4.70;84.70
24402;DHT22;12539;48.808;11.292;2023-02-27T14:31:40;4.70;85.90
24402;DHT22;12539;48.808;11.292;2023-02-27T14:34:09;4.60;82.80
24402;DHT22;12539;48.808;11.292;2023-02-27T14:36:47;4.50;83.50
24402;DHT22;12539;48.808;11.292;2023-02-27T14:39:19;4.40;82.30
24402;DHT22;12539;48.808;11.292;2023-02-27T14:44:23;4.20;82.40
24402;DHT22;12539;48.808;11.292;2023-02-27T14:46:51;4.20;83.80
24402;DHT22;12539;48.808;11.292;2023-02-27T14:49:30;4.30;87.60
24402;DHT22;12539;48.808;11.292;2023-02-27T14:51:57;4.40;87.50
24402;DHT22;12539;48.808;11.292;2023-02-27T14:54:34;4.40;85.30
24402;DHT22;12539;48.808;11.292;2023-02-27T14:57:00;4.50;85.10
24402;DHT22;12539;48.808;11.292;2023-02-27T14:59:28;4.50;86.10
24402;DHT22;12539;48.808;11.292;2023-02-27T15:01:55;4.50;85.80
24402;DHT22;12539;48.808;11.292;2023-02-27T15:07:11;4.60;84.30
24402;DHT22;12539;48.808;11.292;2023-02-27T15:09:42;4.50;82.00
24402;DHT22;12539;48.808;11.292;2023-02-27T15:12:09;4.40;81.40
24402;DHT22;12539;48.808;11.292;2023-02-27T15:14:40;4.30;81.60
24402;DHT22;12539;48.808;11.292;2023-02-27T15:17:19;4.30;81.10
24402;DHT22;12539;48.808;11.292;2023-02-27T15:19:50;4.30;82.80
24402;DHT22;12539;48.808;11.292;2023-02-27T15:22:20;4.20;82.50
24402;DHT22;12539;48.808;11.292;2023-02-27T15:24:47;4.20;82.10
24402;DHT22;12539;48.808;11.292;2023-02-27T15:27:15;4.00;81.50
24402;DHT22;12539;48.808;11.292;2023-02-27T15:29:49;3.90;80.90
24402;DHT22;12539;48.808;11.292;2023-02-27T15:34:47;3.60;81.80
24402;DHT22;12539;48.808;11.292;2023-02-27T15:37:22;3.50;84.40
24402;DHT22;12539;48.808;11.292;2023-02-27T15:39:50;3.40;84.30
24402;DHT22;12539;48.808;11.292;2023-02-27T15:42:18;3.40;83.40
24402;DHT22;12539;48.808;11.292;2023-02-27T15:44:45;3.40;84.70
24402;DHT22;12539;48.808;11.292;2023-02-27T15:47:12;3.30;83.20
24402;DHT22;12539;48.808;11.292;2023-02-27T15:49:39;3.30;84.70
24402;DHT22;12539;48.808;11.292;2023-02-27T15:54:41;3.30;85.20
24402;DHT22;12539;48.808;11.292;2023-02-27T15:57:10;3.30;84.90
24402;DHT22;12539;48.808;11.292;2023-02-27T15:59:39;3.30;86.00
24402;DHT22;12539;48.808;11.292;2023-02-27T16:02:05;3.30;86.20
24402;DHT22;12539;48.808;11.292;2023-02-27T16:04:33;3.30;85.40
24402;DHT22;12539;48.808;11.292;2023-02-27T16:07:04;3.30;86.20
24402;DHT22;12539;48.808;11.292;2023-02-27T16:09:31;3.40;88.10
24402;DHT22;12539;48.808;11.292;2023-02-27T16:14:42;3.40;86.00
24402;DHT22;12539;48.808;11.292;2023-02-27T16:19:53;3.20;85.80
24402;DHT22;12539;48.808;11.292;2023-02-27T16:22:19;3.20;88.10
24402;DHT22;12539;48.808;11.292;2023-02-27T16:24:45;3.10;86.40
24402;DHT22;12539;48.808;11.292;2023-02-27T16:27:24;3.10;84.20
24402;DHT22;12539;48.808;11.292;2023-02-27T16:29:52;3.00;85.10
24402;DHT22;12539;48.808;11.292;2023-02-27T16:34:46;2.90;85.80
24402;DHT22;12539;48.808;11.292;2023-02-27T16:37:16;2.80;87.00
24402;DHT22;12539;48.808;11.292;2023-02-27T16:39:43;2.70;87.00
24402;DHT22;12539;48.808;11.292;2023-02-27T16:42:09;2.80;87.20
24402;DHT22;12539;48.808;11.292;2023-02-27T16:44:34;2.80;88.30
24402;DHT22;12539;48.808;11.292;2023-02-27T16:47:00;2.80;88.30
24402;DHT22;12539;48.808;11.292;2023-02-27T16:49:27;2.70;88.30
24402;DHT22;12539;48.808;11.292;2023-02-27T16:51:53;2.70;88.10
24402;DHT22;12539;48.808;11.292;2023-02-27T16:54:18;2.60;87.90
24402;DHT22;12539;48.808;11.292;2023-02-27T16:56:44;2.60;89.20
24402;DHT22;12539;48.808;11.292;2023-02-27T17:01:45;2.50;90.50
24402;DHT22;12539;48.808;11.292;2023-02-27T17:04:10;2.60;91.00
24402;DHT22;12539;48.808;11.292;2023-02-27T17:06:36;2.60;89.90
24402;DHT22;12539;48.808;11.292;2023-02-27T17:09:02;2.70;91.00
24402;DHT22;12539;48.808;11.292;2023-02-27T17:11:28;2.70;91.10
24402;DHT22;12539;48.808;11.292;2023-02-27T17:13:54;2.60;88.50
24402;DHT22;12539;48.808;11.292;2023-02-27T17:16:20;2.50;90.20
24402;DHT22;12539;48.808;11.292;2023-02-27T17:18:45;2.50;91.00
24402;DHT22;12539;48.808;11.292;2023-02-27T17:21:11;2.50;89.80
24402;DHT22;12539;48.808;11.292;2023-02-27T17:23:36;2.50;90.30
24402;DHT22;12539;48.808;11.292;2023-02-27T17:26:03;2.50;90.60
24402;DHT22;12539;48.808;11.292;2023-02-27T17:28:28;2.50;90.60
24402;DHT22;12539;48.808;11.292;2023-02-27T17:30:54;2.60;91.00
24402;DHT22;12539;48.808;11.292;2023-02-27T17:33:19;2.50;91.10
24402;DHT22;12539;48.808;11.292;2023-02-27T17:35:45;2.50;90.60
24402;DHT22;12539;48.808;11.292;2023-02-27T17:38:10;2.50;90.30
24402;DHT22;12539;48.808;11.292;2023-02-27T17:40:36;2.50;91.00
24402;DHT22;12539;48.808;11.292;2023-02-27T17:43:03;2.50;90.90
24402;DHT22;12539;48.808;11.292;2023-02-27T17:45:29;2.50;90.60
24402;DHT22;12539;48.808;11.292;2023-02-27T17:47:54;2.40;90.90
24402;DHT22;12539;48.808;11.292;2023-02-27T17:50:20;2.50;91.00
24402;DHT22;12539;48.808;11.292;2023-02-27T17:52:45;2.50;91.80
24402;DHT22;12539;48.808;11.292;2023-02-27T17:55:11;2.60;92.50
24402;DHT22;12539;48.808;11.292;2023-02-27T17:57:38;2.60;91.90
24402;DHT22;12539;48.808;11.292;2023-02-27T18:00:04;2.60;92.50
24402;DHT22;12539;48.808;11.292;2023-02-27T18:02:30;2.60;92.20